Time;durP1;ratioP1;P1;durP2;ratioP2;P2;SDS_P1;SDS_P2;PMS_P1;PMS_P2;Temp;Humidity;BMP_temperature;BMP_pressure;BME280_temperature;BME280_humidity;BME280_pressure;Samples;Min_cycle;Max_cycle;Signal;HPM_P1;HPM_P2
2023/06/26 00:01:31;;;;;;;9.80;5.63;;;;;;;17.97;62.13;97197.13;4927848;29;20587;-50
2023/06/26 00:03:59;;;;;;;9.25;5.95;;;;;;;17.98;62.07;97192.47;4927165;29;20498;-48
2023/06/26 00:06:26;;;;;;;7.65;5.00;;;;;;;18.01;61.77;97184.44;4927609;29;20124;-48
2023/06/26 00:08:54;;;;;;;7.88;5.15;;;;;;;18.07;61.44;97183.19;4926917;29;20423;-47
2023/06/26 00:11:21;;;;;;;7.78;5.88;;;;;;;18.12;61.24;97187.81;4929163;29;20562;-47
2023/06/26 00:13:48;;;;;;;8.05;5.57;;;;;;;18.36;59.60;97185.94;4926736;29;20043;-47
2023/06/26 00:16:14;;;;;;;8.30;5.75;;;;;;;18.45;59.30;97187.66;4929442;29;20049;-45
2023/06/26 00:18:41;;;;;;;8.68;5.63;;;;;;;18.53;59.02;97190.75;4925838;29;20505;-51
2023/06/26 00:21:08;;;;;;;9.40;6.32;;;;;;;18.48;59.21;97188.16;4925584;29;20126;-51
2023/06/26 00:23:36;;;;;;;9.50;5.28;;;;;;;18.48;59.06;97188.16;4926600;29;20058;-51
2023/06/26 00:26:05;;;;;;;9.68;5.55;;;;;;;18.51;59.02;97185.63;4924038;29;20039;-50
2023/06/26 00:28:32;;;;;;;9.20;5.68;;;;;;;18.49;58.98;97182.34;4927112;29;20123;-53
2023/06/26 00:30:58;;;;;;;8.45;6.00;;;;;;;18.47;58.91;97192.84;4926940;29;20527;-50
2023/06/26 00:33:28;;;;;;;22.73;6.05;;;;;;;18.44;59.58;97187.97;4939426;28;20078;-50
2023/06/26 00:35:56;;;;;;;9.80;5.90;;;;;;;18.35;59.81;97182.38;4927556;29;20136;-50
2023/06/26 00:38:22;;;;;;;9.18;5.70;;;;;;;18.31;59.93;97184.94;4927910;29;20051;-51
2023/06/26 00:40:49;;;;;;;9.40;6.05;;;;;;;18.38;59.57;97181.78;4941549;28;20043;-51
2023/06/26 00:43:17;;;;;;;9.52;5.47;;;;;;;18.28;60.46;97185.53;4941511;28;20207;-52
2023/06/26 00:45:43;;;;;;;8.80;5.50;;;;;;;18.26;60.58;97182.31;4925980;29;20056;-49
2023/06/26 00:48:13;;;;;;;8.57;5.53;;;;;;;18.06;61.77;97187.06;4926227;29;20050;-47
2023/06/26 00:50:41;;;;;;;10.15;6.13;;;;;;;18.03;61.60;97182.19;4926070;29;20056;-50
2023/06/26 00:53:10;;;;;;;9.02;5.78;;;;;;;18.06;61.50;97175.31;4941482;28;20050;-52
2023/06/26 00:55:37;;;;;;;8.73;5.47;;;;;;;18.02;61.79;97180.56;4926407;29;20538;-48
2023/06/26 00:58:04;;;;;;;9.80;5.80;;;;;;;18.17;60.95;97187.69;4925128;29;20046;-49
2023/06/26 01:00:31;;;;;;;8.30;5.55;;;;;;;18.14;61.34;97188.28;4925964;29;20074;-50
2023/06/26 01:02:58;;;;;;;9.73;5.75;;;;;;;18.05;61.38;97188.19;4925057;29;20134;-51
2023/06/26 01:05:27;;;;;;;9.70;5.95;;;;;;;17.98;61.68;97179.56;4926776;29;20036;-48
2023/06/26 01:07:54;;;;;;;8.35;5.57;;;;;;;17.96;61.73;97181.81;4924326;29;20113;-48
2023/06/26 01:10:21;;;;;;;8.30;5.57;;;;;;;18.04;61.50;97180.28;4926263;29;20039;-46
2023/06/26 01:12:48;;;;;;;9.43;5.85;;;;;;;18.00;61.64;97179.25;4924311;29;20051;-48
2023/06/26 01:15:14;;;;;;;9.40;6.05;;;;;;;18.01;61.74;97180.88;4924994;29;20044;-47
2023/06/26 01:17:45;;;;;;;9.65;6.15;;;;;;;17.99;61.52;97185.88;4924390;29;20521;-50
2023/06/26 01:20:12;;;;;;;10.45;5.57;;;;;;;17.97;61.65;97183.44;4929593;29;20122;-48
2023/06/26 01:22:45;;;;;;;8.90;5.32;;;;;;;17.94;61.63;97184.03;4924076;29;20079;-51
2023/06/26 01:25:20;;;;;;;9.38;5.60;;;;;;;17.98;61.23;97168.59;4926707;28;20047;-48
2023/06/26 01:27:50;;;;;;;8.40;5.45;;;;;;;18.10;60.76;97179.09;4925813;29;20055;-51
2023/06/26 01:30:17;;;;;;;8.93;5.75;;;;;;;18.10;60.99;97176.34;4927463;29;20063;-52
2023/06/26 01:32:44;;;;;;;8.88;5.90;;;;;;;18.01;61.34;97172.66;4923226;29;20052;-53
2023/06/26 01:35:13;;;;;;;9.30;6.10;;;;;;;18.03;61.20;97170.44;4925827;29;20044;-50
2023/06/26 01:37:39;;;;;;;8.43;5.38;;;;;;;17.92;61.55;97170.63;4924064;29;20066;-52
2023/06/26 01:40:07;;;;;;;9.07;5.65;;;;;;;17.85;61.76;97170.25;4927593;29;20048;-53
2023/06/26 01:42:34;;;;;;;9.70;6.10;;;;;;;17.68;62.62;97162.63;4925132;29;20043;-51
2023/06/26 01:45:12;;;;;;;8.55;6.00;;;;;;;17.58;63.10;97163.63;4924806;29;20073;-54
2023/06/26 01:47:43;;;;;;;8.63;5.85;;;;;;;17.50;63.21;97164.34;4924289;29;20052;-51
2023/06/26 01:50:14;;;;;;;9.05;5.60;;;;;;;17.46;63.80;97158.66;4911150;29;20040;-51
2023/06/26 01:52:43;;;;;;;10.32;5.88;;;;;;;17.42;63.99;97157.66;4919079;29;20044;-50
2023/06/26 01:55:17;;;;;;;9.93;6.40;;;;;;;17.39;64.17;97155.50;4925670;29;20047;-50
2023/06/26 01:57:46;;;;;;;8.95;6.00;;;;;;;17.38;63.99;97160.19;4935740;28;20062;-49
2023/06/26 02:00:18;;;;;;;10.48;6.43;;;;;;;17.25;64.78;97147.31;4926990;29;20621;-48
2023/06/26 02:02:44;;;;;;;9.18;6.15;;;;;;;17.20;65.16;97161.03;4929380;29;20503;-50
2023/06/26 02:05:14;;;;;;;9.82;6.38;;;;;;;17.14;65.33;97160.34;4925882;29;20529;-51
2023/06/26 02:07:41;;;;;;;12.95;6.00;;;;;;;17.13;65.54;97158.69;4927434;29;20527;-48
2023/06/26 02:10:08;;;;;;;9.63;6.20;;;;;;;17.07;65.93;97162.66;4928953;29;20131;-49
2023/06/26 02:12:35;;;;;;;9.27;5.93;;;;;;;17.01;66.09;97156.41;4930621;28;20067;-44
2023/06/26 02:15:03;;;;;;;10.10;6.20;;;;;;;16.94;66.94;97169.66;4927911;29;20106;-48
2023/06/26 02:17:30;;;;;;;9.55;6.72;;;;;;;16.92;66.83;97167.25;4927473;29;20050;-48
2023/06/26 02:19:56;;;;;;;10.23;6.20;;;;;;;16.87;67.20;97164.56;4926869;29;20036;-51
2023/06/26 02:22:23;;;;;;;11.23;5.68;;;;;;;16.88;66.79;97160.75;4926860;29;20122;-48
2023/06/26 02:24:49;;;;;;;8.98;5.90;;;;;;;16.85;67.08;97158.59;4926994;28;20049;-50
2023/06/26 02:27:16;;;;;;;9.52;6.10;;;;;;;16.78;67.73;97159.00;4926982;29;20062;-50
2023/06/26 02:29:42;;;;;;;8.50;5.50;;;;;;;16.67;68.30;97160.25;4928396;29;20071;-51
2023/06/26 02:32:09;;;;;;;10.85;6.13;;;;;;;16.62;68.37;97155.69;4926337;29;20050;-49
2023/06/26 02:34:35;;;;;;;9.90;6.60;;;;;;;16.67;67.97;97158.34;4924751;29;20506;-49
2023/06/26 02:37:02;;;;;;;9.32;6.05;;;;;;;16.58;68.63;97157.41;4926477;29;20086;-49
2023/06/26 02:39:29;;;;;;;8.25;5.82;;;;;;;16.58;68.56;97162.84;4925957;29;20044;-50
2023/06/26 02:41:56;;;;;;;12.23;5.78;;;;;;;16.54;68.94;97161.81;4926383;29;20102;-50
2023/06/26 02:44:23;;;;;;;9.52;6.35;;;;;;;16.55;68.66;97152.50;4944591;28;20206;-47
2023/06/26 02:46:50;;;;;;;8.30;5.68;;;;;;;16.57;68.60;97163.94;4926751;29;20506;-49
2023/06/26 02:49:16;;;;;;;9.25;6.03;;;;;;;16.51;69.00;97158.56;4926050;29;20091;-47
2023/06/26 02:51:46;;;;;;;8.93;5.57;;;;;;;16.45;69.23;97154.28;4942650;28;20047;-50
2023/06/26 02:54:19;;;;;;;8.20;5.60;;;;;;;16.42;69.49;97160.34;4930014;29;20590;-48
2023/06/26 02:56:49;;;;;;;8.73;5.93;;;;;;;16.39;69.93;97152.72;4926646;29;20055;-44
2023/06/26 02:59:21;;;;;;;8.18;6.13;;;;;;;16.34;69.86;97164.56;4925875;29;20506;-43
2023/06/26 03:01:48;;;;;;;11.63;5.93;;;;;;;16.32;70.25;97160.47;4925214;29;20147;-48
2023/06/26 03:04:15;;;;;;;11.77;6.30;;;;;;;16.26;70.67;97159.75;4943234;28;20052;-47
2023/06/26 03:06:42;;;;;;;9.77;6.22;;;;;;;16.23;70.73;97158.44;4922514;29;20046;-51
2023/06/26 03:09:08;;;;;;;8.77;5.53;;;;;;;16.24;70.54;97156.50;4943608;28;20709;-52
2023/06/26 03:11:35;;;;;;;7.78;5.35;;;;;;;16.20;70.91;97160.91;4946550;28;20577;-48
2023/06/26 03:14:02;;;;;;;8.10;5.32;;;;;;;16.17;70.92;97156.84;4924679;29;20044;-50
2023/06/26 03:16:30;;;;;;;10.20;6.03;;;;;;;16.16;71.06;97162.59;4938721;28;20048;-47
2023/06/26 03:18:56;;;;;;;10.60;5.97;;;;;;;16.15;71.16;97159.09;4925361;29;20047;-52
2023/06/26 03:21:23;;;;;;;9.52;5.93;;;;;;;16.18;71.24;97166.66;4923055;29;20774;-51
2023/06/26 03:23:50;;;;;;;8.80;5.97;;;;;;;16.19;71.00;97162.03;4938689;28;20151;-51
2023/06/26 03:26:16;;;;;;;9.38;5.88;;;;;;;16.19;71.07;97156.56;4927420;29;20040;-51
2023/06/26 03:28:45;;;;;;;10.25;5.75;;;;;;;16.18;71.34;97169.41;4925881;29;20051;-51
2023/06/26 03:31:11;;;;;;;10.05;5.50;;;;;;;16.12;71.43;97168.69;4925168;29;20052;-49
2023/06/26 03:33:38;;;;;;;9.32;6.18;;;;;;;16.13;71.39;97169.47;4925328;29;20057;-51
2023/06/26 03:36:06;;;;;;;9.40;6.60;;;;;;;16.03;71.94;97167.69;4926199;29;20042;-52
2023/06/26 03:38:33;;;;;;;9.80;6.07;;;;;;;16.02;72.13;97168.78;4940264;28;20043;-51
2023/06/26 03:41:00;;;;;;;9.10;5.63;;;;;;;16.05;71.98;97162.75;4924768;29;20079;-49
2023/06/26 03:43:26;;;;;;;9.48;5.78;;;;;;;16.06;71.92;97169.84;4925497;29;20130;-49
2023/06/26 03:46:13;;;;;;;10.23;5.82;;;;;;;16.06;72.07;97166.28;4925546;29;20047;-51
2023/06/26 03:48:40;;;;;;;10.85;5.93;;;;;;;16.00;72.25;97171.03;4938913;28;20048;-53
2023/06/26 03:51:07;;;;;;;8.82;5.70;;;;;;;15.99;72.49;97163.91;4907687;29;20418;-45
2023/06/26 03:53:34;;;;;;;9.65;5.88;;;;;;;16.01;72.44;97161.72;4924797;29;20431;-49
2023/06/26 03:56:01;;;;;;;11.90;6.57;;;;;;;16.10;72.32;97170.06;4929288;29;20328;-45
2023/06/26 03:58:27;;;;;;;8.13;5.72;;;;;;;16.12;71.71;97170.59;4929601;29;20044;-49
2023/06/26 04:00:55;;;;;;;10.57;5.95;;;;;;;16.12;71.99;97173.31;4947804;28;20043;-50
2023/06/26 04:03:22;;;;;;;9.80;6.47;;;;;;;16.17;72.15;97166.97;4932705;29;20134;-52
2023/06/26 04:05:49;;;;;;;9.48;6.10;;;;;;;16.12;72.19;97173.31;4934589;28;20040;-49
2023/06/26 04:08:16;;;;;;;8.40;5.22;;;;;;;16.08;72.86;97166.81;4933827;29;20046;-48
2023/06/26 04:10:45;;;;;;;10.07;6.10;;;;;;;16.08;72.79;97172.28;4930983;29;20512;-50
2023/06/26 04:13:11;;;;;;;11.63;5.93;;;;;;;16.14;72.69;97170.31;4929349;29;20043;-49
2023/06/26 04:15:38;;;;;;;9.05;5.93;;;;;;;16.16;72.83;97168.91;4923193;29;20082;-51
2023/06/26 04:18:05;;;;;;;8.43;5.28;;;;;;;16.21;72.54;97170.72;4924445;29;20114;-49
2023/06/26 04:20:34;;;;;;;9.13;5.80;;;;;;;16.31;72.21;97172.50;4929534;29;20098;-52
2023/06/26 04:23:01;;;;;;;12.65;6.15;;;;;;;16.36;71.89;97170.53;4923404;29;20046;-51
2023/06/26 04:25:29;;;;;;;8.07;5.47;;;;;;;16.43;71.53;97174.81;4923986;29;20142;-51
2023/06/26 04:27:55;;;;;;;9.35;6.28;;;;;;;16.51;71.78;97180.44;4925239;29;20050;-50
2023/06/26 04:30:22;;;;;;;9.43;5.78;;;;;;;16.61;71.20;97178.66;4929001;29;20075;-46
2023/06/26 04:32:48;;;;;;;9.65;5.60;;;;;;;16.69;70.83;97175.25;4929458;29;20055;-51
2023/06/26 04:35:15;;;;;;;10.35;5.50;;;;;;;16.73;70.68;97181.75;4924466;29;20055;-51
2023/06/26 04:37:41;;;;;;;11.70;6.78;;;;;;;16.83;69.99;97177.22;4923173;29;20123;-47
2023/06/26 04:40:09;;;;;;;13.25;6.20;;;;;;;16.95;70.06;97165.84;4929626;28;20057;-49
2023/06/26 04:42:36;;;;;;;10.70;5.80;;;;;;;17.10;69.22;97173.00;4926120;29;20526;-49
2023/06/26 04:45:03;;;;;;;8.68;5.80;;;;;;;17.21;68.81;97174.44;4926689;29;20047;-48
2023/06/26 04:47:29;;;;;;;8.73;5.25;;;;;;;17.34;68.08;97166.56;4926506;29;20444;-50
2023/06/26 04:49:56;;;;;;;8.68;5.55;;;;;;;17.51;67.42;97172.25;4924373;29;20633;-47
2023/06/26 04:52:22;;;;;;;8.43;5.40;;;;;;;17.60;67.19;97172.38;4922872;29;20039;-52
2023/06/26 04:54:49;;;;;;;8.85;5.88;;;;;;;17.74;66.89;97166.91;4922907;29;20422;-47
2023/06/26 04:57:17;;;;;;;9.27;5.72;;;;;;;17.85;66.78;97172.16;4924594;29;20052;-50
2023/06/26 04:59:44;;;;;;;9.15;5.63;;;;;;;17.94;66.30;97165.69;4924602;29;20517;-51
2023/06/26 05:02:12;;;;;;;10.50;6.05;;;;;;;18.10;65.71;97164.56;4925329;29;20058;-51
2023/06/26 05:04:42;;;;;;;8.88;5.20;;;;;;;18.22;65.69;97164.03;4924964;29;20047;-51
2023/06/26 05:07:08;;;;;;;8.32;5.47;;;;;;;18.29;65.03;97165.25;4924325;29;20050;-52
2023/06/26 05:09:35;;;;;;;8.93;5.70;;;;;;;18.41;65.25;97164.72;4925071;29;20048;-49
2023/06/26 05:12:02;;;;;;;11.52;5.72;;;;;;;18.49;64.97;97163.16;4920859;29;20059;-50
2023/06/26 05:14:29;;;;;;;8.57;5.65;;;;;;;18.57;64.16;97162.44;4923215;29;20174;-51
2023/06/26 05:16:55;;;;;;;10.43;5.93;;;;;;;18.66;64.88;97167.19;4924071;29;20043;-50
2023/06/26 05:19:22;;;;;;;8.65;5.18;;;;;;;18.80;64.57;97165.19;4925294;29;20549;-50
2023/06/26 05:21:49;;;;;;;9.90;6.25;;;;;;;18.94;63.91;97167.88;4922285;29;20044;-51
2023/06/26 05:24:16;;;;;;;7.97;5.28;;;;;;;19.08;63.42;97170.59;4926663;29;20530;-50
2023/06/26 05:26:43;;;;;;;9.23;5.70;;;;;;;19.24;63.06;97172.94;4923444;29;20787;-51
2023/06/26 05:29:10;;;;;;;7.95;5.00;;;;;;;19.35;62.94;97174.28;4925299;29;20044;-49
2023/06/26 05:31:40;;;;;;;9.55;5.38;;;;;;;19.52;61.98;97171.94;4933521;29;20072;-49
2023/06/26 05:34:10;;;;;;;9.02;4.72;;;;;;;19.71;60.51;97172.50;4922964;29;20087;-48
2023/06/26 05:36:38;;;;;;;18.42;5.63;;;;;;;19.92;60.59;97171.13;4922255;29;20043;-47
2023/06/26 05:39:05;;;;;;;7.53;4.75;;;;;;;20.06;61.33;97169.09;4925176;29;20062;-51
2023/06/26 05:41:32;;;;;;;10.75;5.50;;;;;;;20.29;59.30;97166.22;4927791;28;20158;-53
2023/06/26 05:43:59;;;;;;;8.02;5.30;;;;;;;20.52;57.95;97166.91;4922294;29;20050;-51
2023/06/26 05:46:25;;;;;;;8.90;4.93;;;;;;;20.73;56.53;97173.69;4928609;29;20047;-50
2023/06/26 05:48:52;;;;;;;7.55;4.78;;;;;;;21.02;55.70;97175.00;4924063;29;20130;-51
2023/06/26 05:51:18;;;;;;;7.85;5.25;;;;;;;21.21;55.51;97177.41;4923642;29;20063;-50
2023/06/26 05:53:45;;;;;;;8.40;5.40;;;;;;;21.33;56.04;97173.19;4923308;29;20047;-52
2023/06/26 05:56:12;;;;;;;6.78;4.53;;;;;;;21.44;54.93;97168.91;4924573;29;20044;-51
2023/06/26 05:58:41;;;;;;;8.48;4.75;;;;;;;21.52;55.07;97172.78;4924789;29;20055;-50
2023/06/26 06:01:08;;;;;;;7.45;5.05;;;;;;;21.58;55.30;97174.22;4924822;29;20051;-53
2023/06/26 06:03:34;;;;;;;6.57;4.32;;;;;;;21.67;54.33;97171.44;4924416;29;20066;-50
2023/06/26 06:06:01;;;;;;;6.95;4.13;;;;;;;21.76;54.69;97174.19;4925028;29;20526;-51
2023/06/26 06:08:27;;;;;;;7.18;5.35;;;;;;;21.83;54.75;97178.03;4926079;28;20035;-50
2023/06/26 06:10:54;;;;;;;6.63;4.32;;;;;;;21.91;54.33;97170.06;4924714;29;20404;-51
2023/06/26 06:13:21;;;;;;;5.82;4.10;;;;;;;22.24;53.12;97172.16;4924921;29;20055;-52
2023/06/26 06:15:47;;;;;;;7.78;4.57;;;;;;;22.32;53.46;97178.75;4924873;29;20058;-48
2023/06/26 06:18:13;;;;;;;6.57;4.20;;;;;;;22.43;53.09;97177.22;4930307;29;20552;-48
2023/06/26 06:20:40;;;;;;;6.60;4.47;;;;;;;22.52;52.95;97181.88;4927094;29;20047;-50
2023/06/26 06:23:07;;;;;;;10.25;5.93;;;;;;;22.78;51.56;97183.63;4924615;29;20052;-50
2023/06/26 06:25:33;;;;;;;7.00;4.55;;;;;;;23.00;51.24;97183.28;4924402;29;20069;-51
2023/06/26 06:28:00;;;;;;;7.30;4.70;;;;;;;23.16;51.36;97190.13;4923130;29;20047;-62
2023/06/26 06:30:26;;;;;;;6.68;4.18;;;;;;;23.31;50.00;97191.44;4924229;29;20051;-63
2023/06/26 06:33:10;;;;;;;7.00;4.63;;;;;;;23.44;49.79;97187.56;4924224;29;20055;-62
2023/06/26 06:35:36;;;;;;;6.45;4.53;;;;;;;23.56;49.70;97189.56;4919984;29;20137;-63
2023/06/26 06:38:03;;;;;;;7.70;4.90;;;;;;;23.62;50.01;97187.41;4924847;29;20091;-63
2023/06/26 06:40:29;;;;;;;8.68;4.50;;;;;;;23.70;48.91;97191.22;4924182;29;20118;-62
2023/06/26 06:42:56;;;;;;;6.03;4.18;;;;;;;23.78;48.84;97182.00;4925102;29;20055;-63
2023/06/26 06:45:22;;;;;;;5.80;4.10;;;;;;;23.85;49.25;97192.50;4932221;28;20138;-63
2023/06/26 06:47:49;;;;;;;5.93;4.57;;;;;;;24.00;50.54;97191.78;4927735;29;20123;-63
2023/06/26 06:50:17;;;;;;;7.32;4.47;;;;;;;24.14;48.89;97197.00;4928229;29;20111;-63
2023/06/26 06:52:44;;;;;;;7.15;4.38;;;;;;;24.23;48.97;97190.53;4930286;29;20545;-62
2023/06/26 06:55:11;;;;;;;5.80;3.70;;;;;;;24.34;49.17;97188.09;4938159;29;20068;-63
2023/06/26 06:57:39;;;;;;;7.43;4.40;;;;;;;24.62;47.68;97190.16;4933224;28;20047;-63
2023/06/26 07:00:11;;;;;;;7.40;4.40;;;;;;;24.76;48.28;97196.09;4940563;29;20046;-63
2023/06/26 07:02:39;;;;;;;6.65;3.90;;;;;;;25.00;45.44;97194.44;4930776;29;20044;-63
2023/06/26 07:05:06;;;;;;;7.68;4.50;;;;;;;25.08;45.85;97200.97;4933447;29;20040;-63
2023/06/26 07:07:34;;;;;;;5.25;3.83;;;;;;;25.13;45.68;97194.38;4935596;29;20045;-62
2023/06/26 07:10:09;;;;;;;6.90;3.85;;;;;;;25.15;45.70;97192.06;4933247;29;20096;-63
2023/06/26 07:12:36;;;;;;;7.03;4.30;;;;;;;25.30;44.67;97185.75;4931826;29;20603;-63
2023/06/26 07:15:05;;;;;;;6.53;4.00;;;;;;;25.35;44.21;97197.75;4932286;28;20058;-62
2023/06/26 07:17:32;;;;;;;6.03;3.90;;;;;;;25.45;44.69;97192.50;4933319;28;20660;-63
2023/06/26 07:20:00;;;;;;;7.85;3.90;;;;;;;25.57;43.72;97194.41;4929710;29;20733;-63
2023/06/26 07:22:27;;;;;;;5.93;4.03;;;;;;;25.65;43.27;97198.16;4937148;29;20070;-62
2023/06/26 07:24:53;;;;;;;7.40;3.72;;;;;;;25.91;42.04;97188.50;4933282;28;20123;-62
2023/06/26 07:27:20;;;;;;;6.90;4.28;;;;;;;25.98;41.38;97191.47;4935191;28;20039;-63
2023/06/26 07:29:46;;;;;;;7.03;3.85;;;;;;;26.07;41.86;97191.28;4922543;29;20052;-62
2023/06/26 07:32:13;;;;;;;5.13;3.38;;;;;;;26.08;42.23;97195.66;4928899;29;20560;-62
2023/06/26 07:34:41;;;;;;;6.35;4.00;;;;;;;26.22;41.34;97194.38;4927350;29;20507;-63
2023/06/26 07:37:08;;;;;;;8.95;4.32;;;;;;;26.30;41.94;97198.16;4929852;29;20032;-63
2023/06/26 07:39:34;;;;;;;5.30;3.90;;;;;;;26.41;41.37;97193.66;4937076;29;20082;-63
2023/06/26 07:42:01;;;;;;;8.05;3.67;;;;;;;26.43;41.47;97196.88;4927001;29;20057;-63
2023/06/26 07:44:27;;;;;;;6.47;4.00;;;;;;;26.46;41.84;97196.16;4928577;29;20131;-63
2023/06/26 07:46:54;;;;;;;7.55;3.67;;;;;;;26.56;41.08;97194.78;4928644;29;20036;-63
2023/06/26 07:49:21;;;;;;;4.95;3.38;;;;;;;26.64;40.96;97194.94;4928696;29;20067;-63
2023/06/26 07:51:47;;;;;;;6.25;3.35;;;;;;;26.71;41.71;97197.84;4929508;29;20055;-63
2023/06/26 07:54:14;;;;;;;7.75;3.47;;;;;;;26.88;41.17;97199.41;4931906;28;20063;-63
2023/06/26 07:57:01;;;;;;;4.53;3.17;;;;;;;26.86;40.72;97194.22;4926406;28;20051;-63
2023/06/26 07:59:29;;;;;;;6.47;3.30;;;;;;;26.90;41.78;97191.50;4932830;29;20043;-62
2023/06/26 08:01:57;;;;;;;6.32;3.80;;;;;;;26.91;41.90;97203.44;4932018;29;20051;-62
2023/06/26 08:04:26;;;;;;;6.78;3.80;;;;;;;26.90;42.18;97204.59;4933776;28;20483;-63
2023/06/26 08:06:56;;;;;;;5.65;3.63;;;;;;;26.85;42.17;97200.94;4928364;29;20543;-63
2023/06/26 08:09:25;;;;;;;5.95;4.03;;;;;;;26.90;41.69;97201.84;4925897;29;20047;-63
2023/06/26 08:11:52;;;;;;;5.07;3.60;;;;;;;26.94;42.04;97200.72;4926138;29;20055;-62
2023/06/26 08:14:19;;;;;;;6.03;3.75;;;;;;;26.97;41.87;97202.00;4931341;29;20062;-63
2023/06/26 08:16:46;;;;;;;6.80;4.13;;;;;;;27.05;41.56;97192.63;4923492;28;20051;-62
2023/06/26 08:19:14;;;;;;;9.13;4.10;;;;;;;26.99;40.88;97206.03;4925919;29;20139;-62
2023/06/26 08:21:44;;;;;;;5.32;3.72;;;;;;;27.11;40.62;97196.75;4925028;29;20047;-62
2023/06/26 08:24:13;;;;;;;5.65;3.53;;;;;;;27.08;40.77;97196.69;4929544;29;20115;-62
2023/06/26 08:26:39;;;;;;;6.40;3.75;;;;;;;27.09;40.44;97206.63;4929510;29;20530;-63
2023/06/26 08:29:09;;;;;;;6.80;3.70;;;;;;;26.97;40.80;97193.66;4936865;29;20558;-62
2023/06/26 08:31:39;;;;;;;8.07;3.63;;;;;;;27.16;40.60;97186.50;4925994;28;20152;-63
2023/06/26 08:34:07;;;;;;;6.28;3.80;;;;;;;27.33;40.89;97188.00;4927816;29;20374;-63
2023/06/26 08:36:34;;;;;;;4.93;3.35;;;;;;;27.39;40.86;97179.00;4927282;29;20522;-63
2023/06/26 08:39:01;;;;;;;5.35;3.42;;;;;;;27.41;40.02;97184.19;4925273;29;20545;-62
2023/06/26 08:41:27;;;;;;;8.18;4.82;;;;;;;27.61;40.03;97186.94;4926218;29;20070;-62
2023/06/26 08:43:54;;;;;;;5.32;3.83;;;;;;;27.59;39.61;97186.47;4924034;29;20471;-63
2023/06/26 08:46:21;;;;;;;6.78;4.00;;;;;;;27.61;38.96;97193.34;4928442;29;20818;-63
2023/06/26 08:49:01;;;;;;;4.80;3.33;;;;;;;27.58;39.59;97193.22;4925186;29;20044;-63
2023/06/26 08:51:28;;;;;;;8.93;4.00;;;;;;;27.66;40.15;97195.00;4925758;29;20044;-62
2023/06/26 08:53:59;;;;;;;5.07;3.35;;;;;;;27.63;39.65;97187.38;4923885;28;20492;-62
2023/06/26 08:56:35;;;;;;;5.05;3.65;;;;;;;27.60;39.57;97193.66;4925239;29;20040;-62
2023/06/26 08:59:02;;;;;;;7.07;3.72;;;;;;;27.69;39.88;97191.47;4931945;29;20038;-62
2023/06/26 09:01:30;;;;;;;7.78;5.07;;;;;;;27.86;39.49;97190.16;4925567;29;20050;-63
2023/06/26 09:03:56;;;;;;;7.05;4.53;;;;;;;27.87;38.88;97183.44;4931238;29;20054;-62
2023/06/26 09:06:23;;;;;;;6.03;4.13;;;;;;;27.85;39.37;97199.69;4925724;29;20495;-62
2023/06/26 09:08:49;;;;;;;7.38;4.70;;;;;;;27.82;39.40;97189.28;4928976;29;20044;-62
2023/06/26 09:11:16;;;;;;;6.82;3.95;;;;;;;27.89;40.05;97194.97;4930544;28;20048;-61
2023/06/26 09:13:43;;;;;;;6.82;4.30;;;;;;;27.97;39.87;97198.69;4924010;28;20051;-62
2023/06/26 09:16:10;;;;;;;7.63;3.85;;;;;;;28.01;40.00;97195.97;4922034;29;20043;-62
2023/06/26 09:18:36;;;;;;;8.27;4.28;;;;;;;28.12;40.83;97199.72;4925943;29;20046;-63
2023/06/26 09:21:08;;;;;;;6.35;4.00;;;;;;;28.24;39.89;97197.91;4920646;29;20059;-62
2023/06/26 09:23:35;;;;;;;5.95;4.22;;;;;;;28.22;38.97;97203.84;4927065;29;20051;-63
2023/06/26 09:26:04;;;;;;;6.00;4.18;;;;;;;28.29;40.21;97203.19;4922846;29;20575;-62
2023/06/26 09:28:33;;;;;;;7.55;3.92;;;;;;;28.35;39.81;97196.13;4923089;29;20678;-62
2023/06/26 09:31:07;;;;;;;7.18;4.30;;;;;;;28.46;40.39;97203.81;4922976;28;20045;-62
2023/06/26 09:33:36;;;;;;;5.30;3.80;;;;;;;28.41;40.40;97200.19;4922658;29;20048;-62
2023/06/26 09:36:09;;;;;;;6.28;4.68;;;;;;;28.32;40.64;97212.75;4927039;29;20525;-62
2023/06/26 09:38:36;;;;;;;7.13;4.80;;;;;;;28.29;40.55;97217.91;4925316;28;20509;-62
2023/06/26 09:41:05;;;;;;;6.53;5.03;;;;;;;28.27;40.98;97199.97;4921984;29;20051;-63
2023/06/26 09:43:32;;;;;;;11.50;4.97;;;;;;;28.33;41.69;97211.59;4921895;29;20050;-62
2023/06/26 09:46:00;;;;;;;8.35;5.35;;;;;;;28.38;41.35;97206.50;4922522;29;20052;-62
2023/06/26 09:48:28;;;;;;;8.50;5.10;;;;;;;28.38;41.34;97211.28;4926607;28;20576;-62
2023/06/26 09:50:55;;;;;;;6.75;5.07;;;;;;;28.59;41.26;97213.56;4927089;29;20067;-62
2023/06/26 09:53:37;;;;;;;9.75;4.82;;;;;;;28.52;41.65;97208.69;4923395;29;20705;-62
2023/06/26 09:56:07;;;;;;;8.18;5.20;;;;;;;28.69;42.55;97207.34;4925106;29;20075;-61
2023/06/26 09:58:36;;;;;;;11.50;4.82;;;;;;;28.93;41.60;97219.22;4923023;29;20503;-62
2023/06/26 10:01:03;;;;;;;6.57;4.82;;;;;;;29.05;41.21;97217.38;4922534;29;20118;-61
2023/06/26 10:03:29;;;;;;;7.18;4.57;;;;;;;28.89;40.83;97223.13;4925276;29;20055;-61
2023/06/26 10:05:57;;;;;;;6.57;4.82;;;;;;;28.79;41.83;97221.78;4923203;29;20052;-62
2023/06/26 10:08:24;;;;;;;13.23;5.47;;;;;;;28.86;41.77;97227.47;4924163;29;20639;-61
2023/06/26 10:10:52;;;;;;;7.15;5.28;;;;;;;28.61;42.25;97225.13;4936033;28;20047;-62
2023/06/26 10:13:25;;;;;;;7.93;5.07;;;;;;;28.75;41.61;97223.72;4924140;29;20040;-63
2023/06/26 10:15:52;;;;;;;8.82;5.00;;;;;;;28.24;42.46;97222.94;4921057;29;20142;-62
2023/06/26 10:18:21;;;;;;;7.90;4.95;;;;;;;28.34;42.53;97227.13;4925015;29;20646;-62
2023/06/26 10:20:49;;;;;;;6.97;5.18;;;;;;;28.48;40.81;97240.47;4926223;29;20058;-62
2023/06/26 10:23:19;;;;;;;9.43;5.05;;;;;;;27.96;40.92;97249.94;4932257;29;20035;-62
2023/06/26 10:25:48;;;;;;;7.75;5.00;;;;;;;27.46;42.11;97239.47;4927232;29;20575;-62
2023/06/26 10:28:16;;;;;;;9.35;5.40;;;;;;;27.12;43.26;97239.22;4937210;28;20048;-62
2023/06/26 10:30:46;;;;;;;7.13;5.15;;;;;;;27.38;42.96;97246.09;4925450;29;20090;-62
2023/06/26 10:33:13;;;;;;;9.10;5.45;;;;;;;27.20;43.69;97248.50;4928271;29;20087;-62
2023/06/26 10:35:44;;;;;;;6.88;4.97;;;;;;;27.36;43.78;97238.13;4925001;29;20093;-62
2023/06/26 10:38:11;;;;;;;9.43;5.30;;;;;;;27.56;43.81;97251.97;4928457;29;20047;-62
2023/06/26 10:40:45;;;;;;;9.68;5.50;;;;;;;27.84;43.42;97250.13;4936479;29;20131;-62
2023/06/26 10:43:14;;;;;;;8.10;5.22;;;;;;;27.93;42.99;97250.66;4924491;29;20047;-62
2023/06/26 10:45:45;;;;;;;6.82;4.70;;;;;;;27.81;42.97;97265.56;4926834;28;20131;-62
2023/06/26 10:48:15;;;;;;;6.85;5.18;;;;;;;28.10;43.32;97256.91;4925161;29;20451;-62
2023/06/26 10:50:43;;;;;;;8.57;5.40;;;;;;;28.41;42.64;97255.06;4923047;29;20051;-61
2023/06/26 10:53:20;;;;;;;7.90;5.05;;;;;;;28.38;42.06;97258.59;4932879;29;20071;-61
2023/06/26 10:55:56;;;;;;;8.13;5.22;;;;;;;28.13;43.14;97250.63;4923475;29;20048;-61
2023/06/26 10:58:30;;;;;;;8.38;5.28;;;;;;;28.26;43.67;97252.06;4923594;29;20463;-61
2023/06/26 11:01:12;;;;;;;6.80;5.30;;;;;;;28.24;44.01;97259.97;4925550;29;20047;-61
2023/06/26 11:03:41;;;;;;;8.85;5.50;;;;;;;28.53;44.02;97254.84;4935213;29;20047;-61
2023/06/26 11:06:12;;;;;;;7.55;4.90;;;;;;;28.52;43.72;97252.44;4926688;29;20048;-62
2023/06/26 11:08:53;;;;;;;6.63;4.88;;;;;;;28.33;43.46;97259.72;4925524;29;20039;-62
2023/06/26 11:11:52;;;;;;;6.50;4.40;;;;;;;28.23;44.52;97251.97;4921708;29;20083;-61
2023/06/26 11:14:19;;;;;;;7.82;4.93;;;;;;;28.42;44.26;97253.91;4920749;29;20043;-61
2023/06/26 11:16:46;;;;;;;7.15;5.10;;;;;;;28.68;43.41;97253.06;4924488;29;20111;-61
2023/06/26 11:19:14;;;;;;;7.60;4.72;;;;;;;28.88;42.93;97266.06;4925333;29;20043;-62
2023/06/26 11:21:41;;;;;;;6.30;4.25;;;;;;;28.85;43.10;97264.06;4940871;28;20044;-61
2023/06/26 11:24:09;;;;;;;9.02;4.63;;;;;;;29.08;42.60;97262.00;4925268;29;20118;-57
2023/06/26 11:26:43;;;;;;;6.97;4.50;;;;;;;29.36;42.79;97265.50;4925151;29;20119;-61
2023/06/26 11:29:11;;;;;;;6.15;4.57;;;;;;;28.89;44.06;97262.91;4933166;29;20292;-59
2023/06/26 11:31:40;;;;;;;7.47;4.82;;;;;;;28.88;44.44;97269.66;4926914;28;20038;-60
2023/06/26 11:34:11;;;;;;;6.20;4.53;;;;;;;28.88;44.72;97275.25;4922091;29;20126;-60
2023/06/26 11:36:41;;;;;;;6.97;4.53;;;;;;;28.99;44.93;97280.16;4922883;29;20119;-59